sensor_id;sensor_type;location;lat;lon;timestamp;pressure;altitude;pressure_sealevel;temperature;humidity
46642;BME280;32370;41.864;-88.124;2022-09-09T00:01:31;98542.27;;;25.24;41.79
46642;BME280;32370;41.864;-88.124;2022-09-09T00:04:09;98540.51;;;25.08;41.80
46642;BME280;32370;41.864;-88.124;2022-09-09T00:06:46;98542.45;;;25.04;41.81
46642;BME280;32370;41.864;-88.124;2022-09-09T00:09:20;98541.38;;;24.91;42.20
46642;BME280;32370;41.864;-88.124;2022-09-09T00:11:52;98536.28;;;24.93;42.62
46642;BME280;32370;41.864;-88.124;2022-09-09T00:14:25;98535.44;;;24.76;43.22
46642;BME280;32370;41.864;-88.124;2022-09-09T00:17:03;98537.03;;;24.94;43.25
46642;BME280;32370;41.864;-88.124;2022-09-09T00:19:37;98537.17;;;24.85;43.46
46642;BME280;32370;41.864;-88.124;2022-09-09T00:22:15;98536.47;;;24.45;44.12
46642;BME280;32370;41.864;-88.124;2022-09-09T00:24:45;98536.10;;;23.92;44.64
46642;BME280;32370;41.864;-88.124;2022-09-09T00:27:25;98536.36;;;24.19;45.08
46642;BME280;32370;41.864;-88.124;2022-09-09T00:29:58;98534.87;;;23.78;45.46
46642;BME280;32370;41.864;-88.124;2022-09-09T00:32:30;98536.04;;;23.97;45.91
46642;BME280;32370;41.864;-88.124;2022-09-09T00:35:02;98534.21;;;23.93;46.31
46642;BME280;32370;41.864;-88.124;2022-09-09T00:37:30;98534.38;;;24.08;46.84
46642;BME280;32370;41.864;-88.124;2022-09-09T00:40:02;98537.99;;;23.93;47.31
46642;BME280;32370;41.864;-88.124;2022-09-09T00:42:41;98536.97;;;23.72;48.01
46642;BME280;32370;41.864;-88.124;2022-09-09T00:45:32;98537.55;;;23.50;48.50
46642;BME280;32370;41.864;-88.124;2022-09-09T00:48:07;98545.11;;;23.16;49.20
46642;BME280;32370;41.864;-88.124;2022-09-09T00:50:45;98547.36;;;22.77;50.37
46642;BME280;32370;41.864;-88.124;2022-09-09T00:53:26;98548.60;;;22.62;50.69
46642;BME280;32370;41.864;-88.124;2022-09-09T00:56:02;98551.20;;;22.62;50.89
46642;BME280;32370;41.864;-88.124;2022-09-09T00:58:35;98553.04;;;22.78;51.33
46642;BME280;32370;41.864;-88.124;2022-09-09T01:01:07;98553.58;;;22.80;51.74
46642;BME280;32370;41.864;-88.124;2022-09-09T01:03:37;98551.84;;;22.78;51.98
46642;BME280;32370;41.864;-88.124;2022-09-09T01:06:15;98555.93;;;22.46;52.52
46642;BME280;32370;41.864;-88.124;2022-09-09T01:08:58;98556.74;;;22.26;52.91
46642;BME280;32370;41.864;-88.124;2022-09-09T01:11:33;98555.14;;;21.99;53.49
46642;BME280;32370;41.864;-88.124;2022-09-09T01:14:20;98556.51;;;22.00;53.72
46642;BME280;32370;41.864;-88.124;2022-09-09T01:16:51;98558.99;;;22.34;54.28
46642;BME280;32370;41.864;-88.124;2022-09-09T01:19:27;98565.14;;;21.85;54.97
46642;BME280;32370;41.864;-88.124;2022-09-09T01:22:09;98563.55;;;21.77;55.09
46642;BME280;32370;41.864;-88.124;2022-09-09T01:24:52;98566.05;;;21.89;55.30
46642;BME280;32370;41.864;-88.124;2022-09-09T01:27:23;98565.94;;;21.63;55.75
46642;BME280;32370;41.864;-88.124;2022-09-09T01:29:52;98564.93;;;21.33;56.87
46642;BME280;32370;41.864;-88.124;2022-09-09T01:32:54;98566.56;;;21.91;56.83
46642;BME280;32370;41.864;-88.124;2022-09-09T01:35:37;98565.16;;;21.24;56.69
46642;BME280;32370;41.864;-88.124;2022-09-09T01:38:08;98566.99;;;21.72;56.86
46642;BME280;32370;41.864;-88.124;2022-09-09T01:40:37;98569.90;;;21.32;57.19
46642;BME280;32370;41.864;-88.124;2022-09-09T01:43:06;98567.80;;;21.55;57.37
46642;BME280;32370;41.864;-88.124;2022-09-09T01:45:34;98569.73;;;20.85;57.77
46642;BME280;32370;41.864;-88.124;2022-09-09T01:48:03;98572.07;;;20.92;58.40
46642;BME280;32370;41.864;-88.124;2022-09-09T01:50:31;98572.57;;;20.89;58.47
46642;BME280;32370;41.864;-88.124;2022-09-09T01:52:59;98573.35;;;20.84;58.78
46642;BME280;32370;41.864;-88.124;2022-09-09T01:55:32;98576.07;;;20.83;59.16
46642;BME280;32370;41.864;-88.124;2022-09-09T01:58:12;98574.68;;;21.01;59.56
46642;BME280;32370;41.864;-88.124;2022-09-09T02:00:49;98573.05;;;20.83;60.05
46642;BME280;32370;41.864;-88.124;2022-09-09T02:03:25;98573.36;;;20.74;60.29
46642;BME280;32370;41.864;-88.124;2022-09-09T02:06:00;98575.22;;;20.64;60.59
46642;BME280;32370;41.864;-88.124;2022-09-09T02:08:40;98578.73;;;20.58;60.84
46642;BME280;32370;41.864;-88.124;2022-09-09T02:11:14;98579.17;;;20.38;61.49
46642;BME280;32370;41.864;-88.124;2022-09-09T02:13:44;98576.90;;;20.12;62.60
46642;BME280;32370;41.864;-88.124;2022-09-09T02:16:17;98577.89;;;20.00;62.86
46642;BME280;32370;41.864;-88.124;2022-09-09T02:18:51;98580.70;;;20.16;62.94
46642;BME280;32370;41.864;-88.124;2022-09-09T02:21:23;98583.40;;;20.22;62.76
46642;BME280;32370;41.864;-88.124;2022-09-09T02:23:53;98582.76;;;20.50;62.88
46642;BME280;32370;41.864;-88.124;2022-09-09T02:26:24;98583.80;;;20.37;63.37
46642;BME280;32370;41.864;-88.124;2022-09-09T02:28:55;98584.24;;;20.04;63.71
46642;BME280;32370;41.864;-88.124;2022-09-09T02:31:25;98585.32;;;19.55;64.56
46642;BME280;32370;41.864;-88.124;2022-09-09T02:33:55;98581.89;;;19.72;64.68
46642;BME280;32370;41.864;-88.124;2022-09-09T02:36:26;98576.89;;;19.61;64.97
46642;BME280;32370;41.864;-88.124;2022-09-09T02:38:56;98573.82;;;19.26;65.64
46642;BME280;32370;41.864;-88.124;2022-09-09T02:41:28;98573.71;;;19.61;66.05
46642;BME280;32370;41.864;-88.124;2022-09-09T02:43:58;98577.64;;;19.59;66.01
46642;BME280;32370;41.864;-88.124;2022-09-09T02:46:35;98579.09;;;19.32;66.09
46642;BME280;32370;41.864;-88.124;2022-09-09T02:49:10;98582.31;;;19.49;66.25
46642;BME280;32370;41.864;-88.124;2022-09-09T02:51:46;98588.04;;;19.33;67.01
46642;BME280;32370;41.864;-88.124;2022-09-09T02:54:22;98587.04;;;20.15;65.57
46642;BME280;32370;41.864;-88.124;2022-09-09T02:56:54;98586.96;;;19.59;65.17
46642;BME280;32370;41.864;-88.124;2022-09-09T02:59:24;98583.29;;;19.73;64.60
46642;BME280;32370;41.864;-88.124;2022-09-09T03:01:52;98585.57;;;19.99;64.48
46642;BME280;32370;41.864;-88.124;2022-09-09T03:04:19;98588.01;;;19.53;64.82
46642;BME280;32370;41.864;-88.124;2022-09-09T03:06:47;98591.38;;;19.96;64.93
46642;BME280;32370;41.864;-88.124;2022-09-09T03:09:15;98591.88;;;19.32;65.32
46642;BME280;32370;41.864;-88.124;2022-09-09T03:11:43;98589.89;;;19.41;65.79
46642;BME280;32370;41.864;-88.124;2022-09-09T03:14:10;98589.64;;;19.03;66.12
46642;BME280;32370;41.864;-88.124;2022-09-09T03:16:38;98590.66;;;18.99;66.18
46642;BME280;32370;41.864;-88.124;2022-09-09T03:19:06;98593.81;;;19.28;66.06
46642;BME280;32370;41.864;-88.124;2022-09-09T03:21:34;98592.66;;;19.42;65.71
46642;BME280;32370;41.864;-88.124;2022-09-09T03:24:02;98592.36;;;19.17;66.16
46642;BME280;32370;41.864;-88.124;2022-09-09T03:26:30;98590.73;;;18.88;67.01
46642;BME280;32370;41.864;-88.124;2022-09-09T03:28:58;98591.35;;;18.84;67.01
46642;BME280;32370;41.864;-88.124;2022-09-09T03:31:25;98595.54;;;18.83;66.93
46642;BME280;32370;41.864;-88.124;2022-09-09T03:33:53;98603.85;;;18.73;68.21
46642;BME280;32370;41.864;-88.124;2022-09-09T03:36:21;98609.03;;;18.57;67.77
46642;BME280;32370;41.864;-88.124;2022-09-09T03:38:48;98613.13;;;18.79;67.57
46642;BME280;32370;41.864;-88.124;2022-09-09T03:41:16;98614.51;;;18.83;67.27
46642;BME280;32370;41.864;-88.124;2022-09-09T03:43:44;98613.80;;;18.83;67.14
46642;BME280;32370;41.864;-88.124;2022-09-09T03:46:12;98611.85;;;18.75;67.30
46642;BME280;32370;41.864;-88.124;2022-09-09T03:48:39;98614.01;;;18.87;66.85
46642;BME280;32370;41.864;-88.124;2022-09-09T03:51:07;98614.98;;;18.87;66.66
46642;BME280;32370;41.864;-88.124;2022-09-09T03:53:35;98615.08;;;18.54;67.26
46642;BME280;32370;41.864;-88.124;2022-09-09T03:56:03;98615.65;;;18.37;67.89
46642;BME280;32370;41.864;-88.124;2022-09-09T03:58:33;98617.24;;;18.31;68.08
46642;BME280;32370;41.864;-88.124;2022-09-09T04:01:02;98612.94;;;18.22;68.24
46642;BME280;32370;41.864;-88.124;2022-09-09T04:03:31;98611.05;;;18.23;68.11
46642;BME280;32370;41.864;-88.124;2022-09-09T04:06:00;98617.18;;;17.85;70.67
46642;BME280;32370;41.864;-88.124;2022-09-09T04:08:28;98613.58;;;18.16;68.88
46642;BME280;32370;41.864;-88.124;2022-09-09T04:10:56;98620.49;;;18.24;69.17
46642;BME280;32370;41.864;-88.124;2022-09-09T04:13:24;98620.27;;;18.06;69.82
46642;BME280;32370;41.864;-88.124;2022-09-09T04:15:53;98621.57;;;17.80;69.69
46642;BME280;32370;41.864;-88.124;2022-09-09T04:18:21;98620.04;;;17.71;69.88
46642;BME280;32370;41.864;-88.124;2022-09-09T04:20:51;98620.58;;;17.99;70.64
46642;BME280;32370;41.864;-88.124;2022-09-09T04:23:19;98621.30;;;17.45;70.73
46642;BME280;32370;41.864;-88.124;2022-09-09T04:25:50;98622.42;;;18.00;70.45
46642;BME280;32370;41.864;-88.124;2022-09-09T04:28:20;98622.56;;;17.93;70.61
46642;BME280;32370;41.864;-88.124;2022-09-09T04:30:49;98621.44;;;17.97;70.53
46642;BME280;32370;41.864;-88.124;2022-09-09T04:33:17;98622.65;;;18.02;70.43
46642;BME280;32370;41.864;-88.124;2022-09-09T04:35:45;98625.16;;;18.04;70.48
46642;BME280;32370;41.864;-88.124;2022-09-09T04:38:13;98621.74;;;17.76;71.08
46642;BME280;32370;41.864;-88.124;2022-09-09T04:40:43;98624.04;;;17.90;71.51
46642;BME280;32370;41.864;-88.124;2022-09-09T04:43:11;98623.56;;;17.28;72.28
46642;BME280;32370;41.864;-88.124;2022-09-09T04:45:39;98627.36;;;17.46;72.31
46642;BME280;32370;41.864;-88.124;2022-09-09T04:48:06;98630.95;;;17.19;72.59
46642;BME280;32370;41.864;-88.124;2022-09-09T04:50:34;98633.16;;;17.50;72.12
46642;BME280;32370;41.864;-88.124;2022-09-09T04:53:02;98633.14;;;17.32;72.70
46642;BME280;32370;41.864;-88.124;2022-09-09T04:55:31;98635.74;;;17.31;72.66
46642;BME280;32370;41.864;-88.124;2022-09-09T04:58:02;98636.35;;;17.58;72.44
46642;BME280;32370;41.864;-88.124;2022-09-09T05:00:29;98634.69;;;17.22;72.85
46642;BME280;32370;41.864;-88.124;2022-09-09T05:02:57;98636.18;;;17.21;72.85
46642;BME280;32370;41.864;-88.124;2022-09-09T05:05:26;98639.19;;;17.19;72.77
46642;BME280;32370;41.864;-88.124;2022-09-09T05:07:53;98636.93;;;17.24;72.73
46642;BME280;32370;41.864;-88.124;2022-09-09T05:10:21;98641.21;;;17.44;72.91
46642;BME280;32370;41.864;-88.124;2022-09-09T05:12:53;98643.91;;;17.17;73.13
46642;BME280;32370;41.864;-88.124;2022-09-09T05:15:20;98647.00;;;17.11;73.55
46642;BME280;32370;41.864;-88.124;2022-09-09T05:17:48;98649.18;;;16.95;73.97
46642;BME280;32370;41.864;-88.124;2022-09-09T05:20:16;98649.28;;;17.14;73.50
46642;BME280;32370;41.864;-88.124;2022-09-09T05:22:43;98648.84;;;17.05;73.31
46642;BME280;32370;41.864;-88.124;2022-09-09T05:25:11;98652.84;;;17.06;73.89
46642;BME280;32370;41.864;-88.124;2022-09-09T05:27:39;98657.80;;;17.10;73.98
46642;BME280;32370;41.864;-88.124;2022-09-09T05:30:08;98657.42;;;16.99;73.68
46642;BME280;32370;41.864;-88.124;2022-09-09T05:32:36;98659.93;;;17.06;74.03
46642;BME280;32370;41.864;-88.124;2022-09-09T05:35:04;98661.04;;;17.00;74.29
46642;BME280;32370;41.864;-88.124;2022-09-09T05:37:32;98663.26;;;17.16;74.55
46642;BME280;32370;41.864;-88.124;2022-09-09T05:40:00;98664.59;;;16.84;74.64
46642;BME280;32370;41.864;-88.124;2022-09-09T05:42:30;98664.67;;;16.80;74.70
46642;BME280;32370;41.864;-88.124;2022-09-09T05:44:58;98665.32;;;16.81;74.59
46642;BME280;32370;41.864;-88.124;2022-09-09T05:47:26;98666.72;;;16.69;74.96
46642;BME280;32370;41.864;-88.124;2022-09-09T05:49:54;98663.82;;;16.86;75.18
46642;BME280;32370;41.864;-88.124;2022-09-09T05:52:22;98664.15;;;16.53;75.48
46642;BME280;32370;41.864;-88.124;2022-09-09T05:54:50;98662.72;;;16.78;75.43
46642;BME280;32370;41.864;-88.124;2022-09-09T05:57:18;98658.40;;;16.73;75.58
46642;BME280;32370;41.864;-88.124;2022-09-09T05:59:46;98656.19;;;16.15;76.02
46642;BME280;32370;41.864;-88.124;2022-09-09T06:02:13;98655.43;;;16.34;76.07
46642;BME280;32370;41.864;-88.124;2022-09-09T06:04:41;98657.53;;;16.59;76.08
46642;BME280;32370;41.864;-88.124;2022-09-09T06:07:09;98660.83;;;16.85;75.25
46642;BME280;32370;41.864;-88.124;2022-09-09T06:09:37;98660.31;;;16.54;75.14
46642;BME280;32370;41.864;-88.124;2022-09-09T06:12:05;98658.34;;;16.68;75.40
46642;BME280;32370;41.864;-88.124;2022-09-09T06:14:34;98653.30;;;16.54;75.94
46642;BME280;32370;41.864;-88.124;2022-09-09T06:17:02;98648.60;;;16.42;76.47
46642;BME280;32370;41.864;-88.124;2022-09-09T06:19:29;98650.79;;;16.33;77.04
46642;BME280;32370;41.864;-88.124;2022-09-09T06:21:57;98643.93;;;16.36;77.03
46642;BME280;32370;41.864;-88.124;2022-09-09T06:24:25;98642.59;;;16.31;77.08
46642;BME280;32370;41.864;-88.124;2022-09-09T06:26:53;98640.72;;;16.27;77.19
46642;BME280;32370;41.864;-88.124;2022-09-09T06:29:21;98640.57;;;16.23;77.44
46642;BME280;32370;41.864;-88.124;2022-09-09T06:31:49;98640.09;;;15.99;77.33
46642;BME280;32370;41.864;-88.124;2022-09-09T06:34:17;98638.67;;;16.34;77.07
46642;BME280;32370;41.864;-88.124;2022-09-09T06:36:45;98641.70;;;16.20;77.67
46642;BME280;32370;41.864;-88.124;2022-09-09T06:39:12;98641.08;;;15.84;78.22
46642;BME280;32370;41.864;-88.124;2022-09-09T06:41:40;98642.44;;;16.07;78.52
46642;BME280;32370;41.864;-88.124;2022-09-09T06:44:09;98640.47;;;15.87;78.36
46642;BME280;32370;41.864;-88.124;2022-09-09T06:46:36;98635.33;;;16.32;77.66
46642;BME280;32370;41.864;-88.124;2022-09-09T06:49:04;98636.91;;;16.17;78.01
46642;BME280;32370;41.864;-88.124;2022-09-09T06:51:34;98636.78;;;16.07;78.38
46642;BME280;32370;41.864;-88.124;2022-09-09T06:54:03;98637.26;;;16.11;79.59
46642;BME280;32370;41.864;-88.124;2022-09-09T06:56:33;98640.35;;;15.85;79.82
46642;BME280;32370;41.864;-88.124;2022-09-09T06:59:04;98636.92;;;16.02;78.98
46642;BME280;32370;41.864;-88.124;2022-09-09T07:01:34;98633.74;;;16.22;78.60
46642;BME280;32370;41.864;-88.124;2022-09-09T07:04:03;98631.40;;;16.37;78.72
46642;BME280;32370;41.864;-88.124;2022-09-09T07:06:33;98630.48;;;15.92;78.84
46642;BME280;32370;41.864;-88.124;2022-09-09T07:09:03;98629.54;;;16.14;78.71
46642;BME280;32370;41.864;-88.124;2022-09-09T07:11:33;98629.48;;;15.93;78.33
46642;BME280;32370;41.864;-88.124;2022-09-09T07:14:02;98627.98;;;15.92;78.47
46642;BME280;32370;41.864;-88.124;2022-09-09T07:16:29;98625.98;;;15.69;79.44
46642;BME280;32370;41.864;-88.124;2022-09-09T07:18:57;98624.88;;;15.69;79.32
46642;BME280;32370;41.864;-88.124;2022-09-09T07:21:26;98621.85;;;15.77;78.99
46642;BME280;32370;41.864;-88.124;2022-09-09T07:23:55;98622.29;;;15.74;79.01
46642;BME280;32370;41.864;-88.124;2022-09-09T07:26:25;98618.26;;;15.76;79.70
46642;BME280;32370;41.864;-88.124;2022-09-09T07:28:54;98622.11;;;15.53;80.05
46642;BME280;32370;41.864;-88.124;2022-09-09T07:31:25;98625.27;;;15.45;80.41
46642;BME280;32370;41.864;-88.124;2022-09-09T07:33:53;98627.62;;;15.45;80.41
46642;BME280;32370;41.864;-88.124;2022-09-09T07:36:23;98627.65;;;15.91;80.51
46642;BME280;32370;41.864;-88.124;2022-09-09T07:38:53;98629.64;;;15.59;80.01
46642;BME280;32370;41.864;-88.124;2022-09-09T07:41:23;98630.14;;;16.23;79.29
46642;BME280;32370;41.864;-88.124;2022-09-09T07:43:51;98630.16;;;16.25;78.94
46642;BME280;32370;41.864;-88.124;2022-09-09T07:46:21;98631.42;;;15.89;79.31
46642;BME280;32370;41.864;-88.124;2022-09-09T07:48:52;98630.38;;;15.24;79.90
46642;BME280;32370;41.864;-88.124;2022-09-09T07:51:22;98628.48;;;15.74;79.90
46642;BME280;32370;41.864;-88.124;2022-09-09T07:53:53;98624.15;;;15.86;80.10
46642;BME280;32370;41.864;-88.124;2022-09-09T07:56:21;98626.34;;;15.89;79.93
46642;BME280;32370;41.864;-88.124;2022-09-09T07:58:50;98628.91;;;15.88;80.02
46642;BME280;32370;41.864;-88.124;2022-09-09T08:01:21;98635.31;;;15.98;79.91
46642;BME280;32370;41.864;-88.124;2022-09-09T08:03:54;98641.86;;;16.03;79.52
46642;BME280;32370;41.864;-88.124;2022-09-09T08:06:22;98645.11;;;15.64;79.99
46642;BME280;32370;41.864;-88.124;2022-09-09T08:08:51;98646.67;;;15.46;80.07
46642;BME280;32370;41.864;-88.124;2022-09-09T08:11:18;98645.05;;;15.51;80.35
46642;BME280;32370;41.864;-88.124;2022-09-09T08:13:46;98648.10;;;15.61;80.78
46642;BME280;32370;41.864;-88.124;2022-09-09T08:16:16;98648.74;;;15.15;80.91
46642;BME280;32370;41.864;-88.124;2022-09-09T08:18:44;98645.14;;;15.34;80.86
46642;BME280;32370;41.864;-88.124;2022-09-09T08:21:14;98647.23;;;15.39;80.52
46642;BME280;32370;41.864;-88.124;2022-09-09T08:23:43;98647.17;;;15.60;80.43
46642;BME280;32370;41.864;-88.124;2022-09-09T08:26:14;98647.73;;;15.45;80.80
46642;BME280;32370;41.864;-88.124;2022-09-09T08:28:43;98653.28;;;15.17;81.07
46642;BME280;32370;41.864;-88.124;2022-09-09T08:31:13;98656.92;;;15.75;81.05
46642;BME280;32370;41.864;-88.124;2022-09-09T08:33:42;98659.66;;;15.60;80.61
46642;BME280;32370;41.864;-88.124;2022-09-09T08:36:12;98657.26;;;15.55;80.41
46642;BME280;32370;41.864;-88.124;2022-09-09T08:38:40;98654.31;;;15.49;80.46
46642;BME280;32370;41.864;-88.124;2022-09-09T08:41:30;98654.91;;;15.25;80.96
46642;BME280;32370;41.864;-88.124;2022-09-09T08:44:07;98657.73;;;15.15;81.69
46642;BME280;32370;41.864;-88.124;2022-09-09T08:46:43;98664.04;;;15.06;81.45
46642;BME280;32370;41.864;-88.124;2022-09-09T08:49:30;98666.26;;;15.31;81.22
46642;BME280;32370;41.864;-88.124;2022-09-09T08:52:11;98667.46;;;15.24;81.51
46642;BME280;32370;41.864;-88.124;2022-09-09T08:54:40;98663.58;;;15.14;81.82
46642;BME280;32370;41.864;-88.124;2022-09-09T08:57:14;98663.01;;;15.16;81.54
46642;BME280;32370;41.864;-88.124;2022-09-09T08:59:46;98663.45;;;15.44;81.57
46642;BME280;32370;41.864;-88.124;2022-09-09T09:02:18;98666.52;;;15.27;81.43
46642;BME280;32370;41.864;-88.124;2022-09-09T09:04:59;98666.42;;;15.47;81.67
46642;BME280;32370;41.864;-88.124;2022-09-09T09:07:41;98669.23;;;15.18;81.84
46642;BME280;32370;41.864;-88.124;2022-09-09T09:10:19;98671.72;;;15.46;81.81
46642;BME280;32370;41.864;-88.124;2022-09-09T09:12:52;98673.87;;;15.19;81.67
46642;BME280;32370;41.864;-88.124;2022-09-09T09:15:24;98677.07;;;14.91;82.22
46642;BME280;32370;41.864;-88.124;2022-09-09T09:17:52;98675.14;;;14.75;82.81
46642;BME280;32370;41.864;-88.124;2022-09-09T09:20:27;98674.53;;;14.64;83.45
46642;BME280;32370;41.864;-88.124;2022-09-09T09:23:02;98673.72;;;14.56;83.91
46642;BME280;32370;41.864;-88.124;2022-09-09T09:25:34;98677.47;;;14.56;84.12
46642;BME280;32370;41.864;-88.124;2022-09-09T09:28:12;98679.56;;;14.80;83.11
46642;BME280;32370;41.864;-88.124;2022-09-09T09:30:48;98683.12;;;14.73;83.09
46642;BME280;32370;41.864;-88.124;2022-09-09T09:33:20;98683.10;;;14.65;83.25
46642;BME280;32370;41.864;-88.124;2022-09-09T09:35:49;98683.02;;;15.14;83.06
46642;BME280;32370;41.864;-88.124;2022-09-09T09:38:23;98684.82;;;14.56;83.25
46642;BME280;32370;41.864;-88.124;2022-09-09T09:40:52;98684.36;;;14.73;83.89
46642;BME280;32370;41.864;-88.124;2022-09-09T09:43:25;98680.82;;;15.02;83.65
46642;BME280;32370;41.864;-88.124;2022-09-09T09:45:54;98683.16;;;14.80;83.46
46642;BME280;32370;41.864;-88.124;2022-09-09T09:48:22;98687.18;;;14.69;83.82
46642;BME280;32370;41.864;-88.124;2022-09-09T09:50:51;98686.96;;;15.02;83.44
46642;BME280;32370;41.864;-88.124;2022-09-09T09:53:23;98687.47;;;14.64;83.79
46642;BME280;32370;41.864;-88.124;2022-09-09T09:55:56;98682.69;;;14.31;84.01
46642;BME280;32370;41.864;-88.124;2022-09-09T09:58:25;98678.69;;;14.18;84.51
46642;BME280;32370;41.864;-88.124;2022-09-09T10:00:54;98675.95;;;14.60;83.81
46642;BME280;32370;41.864;-88.124;2022-09-09T10:03:25;98676.61;;;14.79;83.73
46642;BME280;32370;41.864;-88.124;2022-09-09T10:05:53;98682.57;;;14.30;83.80
46642;BME280;32370;41.864;-88.124;2022-09-09T10:08:22;98688.00;;;14.44;84.20
46642;BME280;32370;41.864;-88.124;2022-09-09T10:11:02;98685.88;;;14.23;83.98
46642;BME280;32370;41.864;-88.124;2022-09-09T10:13:38;98688.49;;;14.79;83.61
46642;BME280;32370;41.864;-88.124;2022-09-09T10:16:22;98685.22;;;14.50;83.73
46642;BME280;32370;41.864;-88.124;2022-09-09T10:18:59;98678.78;;;14.71;83.91
46642;BME280;32370;41.864;-88.124;2022-09-09T10:21:52;98679.48;;;14.44;84.11
46642;BME280;32370;41.864;-88.124;2022-09-09T10:24:36;98682.63;;;14.45;85.01
46642;BME280;32370;41.864;-88.124;2022-09-09T10:27:15;98681.79;;;14.19;85.28
46642;BME280;32370;41.864;-88.124;2022-09-09T10:29:59;98684.06;;;14.30;84.87
46642;BME280;32370;41.864;-88.124;2022-09-09T10:32:40;98688.23;;;14.31;84.75
46642;BME280;32370;41.864;-88.124;2022-09-09T10:35:17;98692.66;;;14.13;84.47
46642;BME280;32370;41.864;-88.124;2022-09-09T10:38:03;98695.99;;;14.74;84.15
46642;BME280;32370;41.864;-88.124;2022-09-09T10:40:41;98702.05;;;14.10;84.17
46642;BME280;32370;41.864;-88.124;2022-09-09T10:43:20;98703.79;;;14.39;84.79
46642;BME280;32370;41.864;-88.124;2022-09-09T10:45:59;98701.47;;;14.47;84.73
46642;BME280;32370;41.864;-88.124;2022-09-09T10:48:37;98707.08;;;14.29;85.07
46642;BME280;32370;41.864;-88.124;2022-09-09T10:51:19;98710.01;;;14.45;84.74
46642;BME280;32370;41.864;-88.124;2022-09-09T10:54:01;98715.16;;;14.31;85.06
46642;BME280;32370;41.864;-88.124;2022-09-09T10:56:33;98726.46;;;14.00;85.55
46642;BME280;32370;41.864;-88.124;2022-09-09T10:59:04;98728.52;;;14.10;85.23
46642;BME280;32370;41.864;-88.124;2022-09-09T11:01:47;98729.14;;;14.37;85.03
46642;BME280;32370;41.864;-88.124;2022-09-09T11:04:19;98731.02;;;14.43;84.95
46642;BME280;32370;41.864;-88.124;2022-09-09T11:06:52;98733.25;;;14.34;85.19
46642;BME280;32370;41.864;-88.124;2022-09-09T11:09:25;98738.11;;;14.35;85.17
46642;BME280;32370;41.864;-88.124;2022-09-09T11:11:56;98739.39;;;14.44;84.84
46642;BME280;32370;41.864;-88.124;2022-09-09T11:14:29;98738.62;;;14.43;84.66
46642;BME280;32370;41.864;-88.124;2022-09-09T11:17:03;98745.57;;;14.22;85.13
46642;BME280;32370;41.864;-88.124;2022-09-09T11:19:35;98744.85;;;13.92;85.59
46642;BME280;32370;41.864;-88.124;2022-09-09T11:22:08;98742.90;;;13.74;85.97
46642;BME280;32370;41.864;-88.124;2022-09-09T11:24:44;98739.28;;;14.15;85.66
46642;BME280;32370;41.864;-88.124;2022-09-09T11:27:17;98739.00;;;14.10;85.55
46642;BME280;32370;41.864;-88.124;2022-09-09T11:30:05;98742.54;;;13.82;85.94
46642;BME280;32370;41.864;-88.124;2022-09-09T11:32:54;98744.67;;;14.01;86.12
46642;BME280;32370;41.864;-88.124;2022-09-09T11:35:33;98753.37;;;13.79;87.57
46642;BME280;32370;41.864;-88.124;2022-09-09T11:38:19;98760.29;;;13.75;88.14
46642;BME280;32370;41.864;-88.124;2022-09-09T11:40:55;98764.41;;;13.91;87.38
46642;BME280;32370;41.864;-88.124;2022-09-09T11:43:26;98761.26;;;13.55;87.52
46642;BME280;32370;41.864;-88.124;2022-09-09T11:45:57;98758.51;;;13.76;87.68
46642;BME280;32370;41.864;-88.124;2022-09-09T11:48:31;98755.17;;;13.95;87.37
46642;BME280;32370;41.864;-88.124;2022-09-09T11:51:03;98757.22;;;13.88;86.67
46642;BME280;32370;41.864;-88.124;2022-09-09T11:53:32;98757.84;;;14.52;86.11
46642;BME280;32370;41.864;-88.124;2022-09-09T11:56:04;98757.53;;;13.98;86.71
46642;BME280;32370;41.864;-88.124;2022-09-09T11:58:38;98762.56;;;13.73;87.01
46642;BME280;32370;41.864;-88.124;2022-09-09T12:01:16;98769.20;;;13.97;86.69
46642;BME280;32370;41.864;-88.124;2022-09-09T12:04:04;98774.56;;;14.30;86.21
46642;BME280;32370;41.864;-88.124;2022-09-09T12:06:41;98777.54;;;14.24;86.84
46642;BME280;32370;41.864;-88.124;2022-09-09T12:09:18;98783.74;;;14.31;86.91
46642;BME280;32370;41.864;-88.124;2022-09-09T12:11:48;98786.16;;;14.26;87.33
46642;BME280;32370;41.864;-88.124;2022-09-09T12:14:22;98787.51;;;14.32;87.76
46642;BME280;32370;41.864;-88.124;2022-09-09T12:16:50;98789.53;;;14.35;87.44
46642;BME280;32370;41.864;-88.124;2022-09-09T12:19:20;98791.19;;;14.67;87.75
46642;BME280;32370;41.864;-88.124;2022-09-09T12:21:54;98786.44;;;14.47;88.38
46642;BME280;32370;41.864;-88.124;2022-09-09T12:24:33;98786.84;;;14.80;88.90
46642;BME280;32370;41.864;-88.124;2022-09-09T12:27:11;98790.78;;;14.70;89.51
46642;BME280;32370;41.864;-88.124;2022-09-09T12:29:47;98798.36;;;15.00;89.60
46642;BME280;32370;41.864;-88.124;2022-09-09T12:32:23;98802.38;;;15.16;89.58
46642;BME280;32370;41.864;-88.124;2022-09-09T12:34:54;98801.57;;;15.08;89.80
46642;BME280;32370;41.864;-88.124;2022-09-09T12:37:31;98807.48;;;15.57;89.19
46642;BME280;32370;41.864;-88.124;2022-09-09T12:40:03;98811.65;;;15.46;88.80
46642;BME280;32370;41.864;-88.124;2022-09-09T12:42:31;98821.43;;;15.59;88.71
46642;BME280;32370;41.864;-88.124;2022-09-09T12:45:01;98825.02;;;16.14;88.18
46642;BME280;32370;41.864;-88.124;2022-09-09T12:47:36;98817.69;;;16.03;87.44
46642;BME280;32370;41.864;-88.124;2022-09-09T12:50:16;98816.35;;;16.55;86.47
46642;BME280;32370;41.864;-88.124;2022-09-09T12:52:45;98814.04;;;16.61;84.73
46642;BME280;32370;41.864;-88.124;2022-09-09T12:55:18;98810.56;;;17.32;84.17
46642;BME280;32370;41.864;-88.124;2022-09-09T12:57:48;98806.97;;;17.11;82.46
46642;BME280;32370;41.864;-88.124;2022-09-09T13:00:19;98805.94;;;17.41;81.90
46642;BME280;32370;41.864;-88.124;2022-09-09T13:02:50;98806.28;;;17.28;80.31
46642;BME280;32370;41.864;-88.124;2022-09-09T13:05:22;98804.11;;;17.52;79.75